This is the latest recevied weather packets stored in our database for station/object IT9DBI-3. If no packets are shown the sender has not sent any weather packets the latest 10 day(s).
| Time | Temp. | Humidity | Pressure | Rain* | Wind** | Luminosity | Snow |
|---|---|---|---|---|---|---|---|
| 1777460825 | 23.33° C | 58% | 1014.9 hPa | - | - | - | - |
| 1777459624 | 23.33° C | 59% | 1015 hPa | - | - | - | - |
| 1777458417 | 22.22° C | 67% | 1015 hPa | - | - | - | - |
| 1777457215 | 21.67° C | 74% | 1015.2 hPa | - | - | - | - |
| 1777456014 | 21.11° C | 76% | 1015.4 hPa | - | - | - | - |
| 1777454812 | 21.67° C | 79% | 1015.5 hPa | - | - | - | - |
| 1777453611 | 21.67° C | 72% | 1015.5 hPa | - | - | - | - |
| 1777452410 | 20.56° C | 78% | 1015.4 hPa | - | - | - | - |
| 1777451208 | 20.56° C | 76% | 1015.4 hPa | - | - | - | - |
| 1777450007 | 21.11° C | 71% | 1015.2 hPa | - | - | - | - |
| 1777448806 | 20.56° C | 66% | 1015.1 hPa | - | - | - | - |
| 1777447605 | 20° C | 65% | 1015 hPa | - | - | - | - |
| 1777446403 | 19.44° C | 55% | 1014.8 hPa | - | - | - | - |
| 1777445202 | 18.89° C | 61% | 1014.7 hPa | - | - | - | - |
| 1777444001 | 17.78° C | 65% | 1014.7 hPa | - | - | - | - |
| 1777442799 | 16.67° C | 67% | 1014.7 hPa | - | - | - | - |
| 1777441598 | 15.56° C | 73% | 1014.7 hPa | - | - | - | - |
| 1777440397 | 15° C | 77% | 1014.7 hPa | - | - | - | - |
| 1777439195 | 13.89° C | 80% | 1014.7 hPa | - | - | - | - |
| 1777437988 | 13.33° C | 74% | 1014.6 hPa | - | - | - | - |
| 1777436783 | 12.22° C | 75% | 1014.6 hPa | - | - | - | - |
| 1777435581 | 12.22° C | 75% | 1014.5 hPa | - | - | - | - |
| 1777434380 | 12.78° C | 73% | 1014.3 hPa | - | - | - | - |
| 1777433179 | 12.78° C | 74% | 1014.3 hPa | - | - | - | - |
| 1777431977 | 12.22° C | 78% | 1014.5 hPa | - | - | - | - |
* Rain since midnight (hover to see other rain measurements)
** Current wind speed in m/s (hover to see current wind gust speed)